sensor_id;sensor_type;location;lat;lon;timestamp;P1;durP1;ratioP1;P2;durP2;ratioP2
37303;SDS011;23188;51.188;16.374;2022-09-09T00:01:47;4.08;;;2.20;;
37303;SDS011;23188;51.188;16.374;2022-09-09T00:18:55;3.12;;;2.35;;
37303;SDS011;23188;51.188;16.374;2022-09-09T00:31:48;1.98;;;1.77;;
37303;SDS011;23188;51.188;16.374;2022-09-09T00:35:56;4.33;;;1.67;;
37303;SDS011;23188;51.188;16.374;2022-09-09T00:40:00;2.80;;;1.87;;
37303;SDS011;23188;51.188;16.374;2022-09-09T00:48:35;2.47;;;1.55;;
37303;SDS011;23188;51.188;16.374;2022-09-09T00:57:32;2.52;;;1.70;;
37303;SDS011;23188;51.188;16.374;2022-09-09T01:01:35;1.80;;;1.70;;
37303;SDS011;23188;51.188;16.374;2022-09-09T01:10:11;3.25;;;1.90;;
37303;SDS011;23188;51.188;16.374;2022-09-09T01:14:38;1.82;;;1.35;;
37303;SDS011;23188;51.188;16.374;2022-09-09T01:18:51;2.08;;;1.87;;
37303;SDS011;23188;51.188;16.374;2022-09-09T01:27:41;2.00;;;1.72;;
37303;SDS011;23188;51.188;16.374;2022-09-09T01:31:58;3.02;;;1.70;;
37303;SDS011;23188;51.188;16.374;2022-09-09T01:40:09;3.22;;;2.22;;
37303;SDS011;23188;51.188;16.374;2022-09-09T01:44:10;5.50;;;2.00;;
37303;SDS011;23188;51.188;16.374;2022-09-09T01:48:12;2.40;;;1.67;;
37303;SDS011;23188;51.188;16.374;2022-09-09T01:52:13;6.40;;;2.02;;
37303;SDS011;23188;51.188;16.374;2022-09-09T02:00:44;3.25;;;1.90;;
37303;SDS011;23188;51.188;16.374;2022-09-09T02:05:19;2.40;;;1.77;;
37303;SDS011;23188;51.188;16.374;2022-09-09T02:09:11;1.87;;;1.47;;
37303;SDS011;23188;51.188;16.374;2022-09-09T02:13:19;3.30;;;2.00;;
37303;SDS011;23188;51.188;16.374;2022-09-09T02:17:25;1.50;;;1.27;;
37303;SDS011;23188;51.188;16.374;2022-09-09T02:21:29;3.92;;;2.22;;
37303;SDS011;23188;51.188;16.374;2022-09-09T02:25:32;3.40;;;1.92;;
37303;SDS011;23188;51.188;16.374;2022-09-09T02:29:40;1.65;;;1.55;;
37303;SDS011;23188;51.188;16.374;2022-09-09T02:33:51;5.72;;;1.67;;
37303;SDS011;23188;51.188;16.374;2022-09-09T02:37:56;3.50;;;1.90;;
37303;SDS011;23188;51.188;16.374;2022-09-09T02:42:02;9.18;;;1.50;;
37303;SDS011;23188;51.188;16.374;2022-09-09T02:46:15;1.75;;;1.65;;
37303;SDS011;23188;51.188;16.374;2022-09-09T02:50:16;1.85;;;1.72;;
37303;SDS011;23188;51.188;16.374;2022-09-09T02:54:30;4.47;;;1.82;;
37303;SDS011;23188;51.188;16.374;2022-09-09T02:58:34;3.95;;;2.00;;
37303;SDS011;23188;51.188;16.374;2022-09-09T03:02:37;3.90;;;1.47;;
37303;SDS011;23188;51.188;16.374;2022-09-09T03:06:39;5.17;;;1.50;;
37303;SDS011;23188;51.188;16.374;2022-09-09T03:10:40;4.10;;;1.95;;
37303;SDS011;23188;51.188;16.374;2022-09-09T03:14:41;3.37;;;1.98;;
37303;SDS011;23188;51.188;16.374;2022-09-09T03:18:44;1.35;;;1.25;;
37303;SDS011;23188;51.188;16.374;2022-09-09T03:22:46;2.37;;;2.00;;
37303;SDS011;23188;51.188;16.374;2022-09-09T03:26:47;2.35;;;1.65;;
37303;SDS011;23188;51.188;16.374;2022-09-09T03:30:51;1.98;;;1.75;;
37303;SDS011;23188;51.188;16.374;2022-09-09T03:34:52;3.05;;;1.50;;
37303;SDS011;23188;51.188;16.374;2022-09-09T03:38:54;3.33;;;1.62;;
37303;SDS011;23188;51.188;16.374;2022-09-09T03:42:55;8.45;;;2.42;;
37303;SDS011;23188;51.188;16.374;2022-09-09T03:46:57;4.08;;;2.00;;
37303;SDS011;23188;51.188;16.374;2022-09-09T03:51:00;1.20;;;1.10;;
37303;SDS011;23188;51.188;16.374;2022-09-09T03:55:03;2.98;;;1.70;;
37303;SDS011;23188;51.188;16.374;2022-09-09T03:59:06;2.15;;;1.50;;
37303;SDS011;23188;51.188;16.374;2022-09-09T04:03:09;2.55;;;1.35;;
37303;SDS011;23188;51.188;16.374;2022-09-09T04:07:11;3.42;;;1.30;;
37303;SDS011;23188;51.188;16.374;2022-09-09T04:11:12;1.90;;;1.65;;
37303;SDS011;23188;51.188;16.374;2022-09-09T04:15:13;2.58;;;1.35;;
37303;SDS011;23188;51.188;16.374;2022-09-09T04:19:14;1.98;;;1.45;;
37303;SDS011;23188;51.188;16.374;2022-09-09T04:23:16;2.35;;;2.05;;
37303;SDS011;23188;51.188;16.374;2022-09-09T04:27:21;2.33;;;1.45;;
37303;SDS011;23188;51.188;16.374;2022-09-09T04:31:22;2.62;;;1.82;;
37303;SDS011;23188;51.188;16.374;2022-09-09T04:35:24;3.58;;;2.05;;
37303;SDS011;23188;51.188;16.374;2022-09-09T04:39:25;1.92;;;1.75;;
37303;SDS011;23188;51.188;16.374;2022-09-09T04:43:26;1.90;;;1.37;;
37303;SDS011;23188;51.188;16.374;2022-09-09T04:47:28;3.35;;;1.57;;
37303;SDS011;23188;51.188;16.374;2022-09-09T04:51:29;2.62;;;1.72;;
37303;SDS011;23188;51.188;16.374;2022-09-09T04:55:31;3.65;;;1.40;;
37303;SDS011;23188;51.188;16.374;2022-09-09T04:59:35;1.72;;;1.00;;
37303;SDS011;23188;51.188;16.374;2022-09-09T05:03:36;2.50;;;1.12;;
37303;SDS011;23188;51.188;16.374;2022-09-09T05:07:38;2.55;;;1.12;;
37303;SDS011;23188;51.188;16.374;2022-09-09T05:11:39;1.32;;;0.93;;
37303;SDS011;23188;51.188;16.374;2022-09-09T05:15:40;1.72;;;1.00;;
37303;SDS011;23188;51.188;16.374;2022-09-09T05:19:43;1.77;;;0.93;;
37303;SDS011;23188;51.188;16.374;2022-09-09T05:23:45;1.57;;;1.45;;
37303;SDS011;23188;51.188;16.374;2022-09-09T05:27:46;1.62;;;0.80;;
37303;SDS011;23188;51.188;16.374;2022-09-09T05:31:48;2.37;;;0.98;;
37303;SDS011;23188;51.188;16.374;2022-09-09T05:35:54;7.92;;;2.25;;
37303;SDS011;23188;51.188;16.374;2022-09-09T05:39:57;2.15;;;0.85;;
37303;SDS011;23188;51.188;16.374;2022-09-09T05:43:58;1.15;;;0.82;;
37303;SDS011;23188;51.188;16.374;2022-09-09T05:48:01;1.42;;;1.32;;
37303;SDS011;23188;51.188;16.374;2022-09-09T05:52:02;1.42;;;1.25;;
37303;SDS011;23188;51.188;16.374;2022-09-09T05:56:05;3.05;;;0.78;;
37303;SDS011;23188;51.188;16.374;2022-09-09T06:00:11;3.85;;;1.50;;
37303;SDS011;23188;51.188;16.374;2022-09-09T06:04:15;2.98;;;1.22;;
37303;SDS011;23188;51.188;16.374;2022-09-09T06:08:16;3.42;;;1.67;;
37303;SDS011;23188;51.188;16.374;2022-09-09T06:12:17;2.20;;;1.50;;
37303;SDS011;23188;51.188;16.374;2022-09-09T06:16:19;3.80;;;1.27;;
37303;SDS011;23188;51.188;16.374;2022-09-09T06:20:26;2.72;;;1.52;;
37303;SDS011;23188;51.188;16.374;2022-09-09T06:24:29;3.62;;;1.80;;
37303;SDS011;23188;51.188;16.374;2022-09-09T06:28:31;1.12;;;1.02;;
37303;SDS011;23188;51.188;16.374;2022-09-09T06:32:34;3.95;;;1.47;;
37303;SDS011;23188;51.188;16.374;2022-09-09T06:36:38;2.40;;;1.50;;
37303;SDS011;23188;51.188;16.374;2022-09-09T06:40:40;2.80;;;1.57;;
37303;SDS011;23188;51.188;16.374;2022-09-09T06:44:41;1.82;;;1.52;;
37303;SDS011;23188;51.188;16.374;2022-09-09T06:48:43;3.05;;;2.20;;
37303;SDS011;23188;51.188;16.374;2022-09-09T06:52:46;2.83;;;2.30;;
37303;SDS011;23188;51.188;16.374;2022-09-09T06:56:49;2.05;;;1.57;;
37303;SDS011;23188;51.188;16.374;2022-09-09T07:00:51;2.45;;;1.65;;
37303;SDS011;23188;51.188;16.374;2022-09-09T07:04:53;4.25;;;2.72;;
37303;SDS011;23188;51.188;16.374;2022-09-09T07:08:56;2.92;;;2.25;;
37303;SDS011;23188;51.188;16.374;2022-09-09T07:13:04;3.25;;;2.92;;
37303;SDS011;23188;51.188;16.374;2022-09-09T07:17:06;6.35;;;2.47;;
37303;SDS011;23188;51.188;16.374;2022-09-09T07:21:08;1.75;;;1.55;;
37303;SDS011;23188;51.188;16.374;2022-09-09T07:25:12;2.05;;;1.62;;
37303;SDS011;23188;51.188;16.374;2022-09-09T07:29:14;3.47;;;2.30;;
37303;SDS011;23188;51.188;16.374;2022-09-09T07:33:16;2.95;;;2.12;;
37303;SDS011;23188;51.188;16.374;2022-09-09T07:37:17;5.28;;;2.45;;
37303;SDS011;23188;51.188;16.374;2022-09-09T07:41:23;3.33;;;2.75;;
37303;SDS011;23188;51.188;16.374;2022-09-09T07:45:33;3.02;;;2.35;;
37303;SDS011;23188;51.188;16.374;2022-09-09T07:49:36;6.58;;;2.52;;
37303;SDS011;23188;51.188;16.374;2022-09-09T07:53:38;2.35;;;2.02;;
37303;SDS011;23188;51.188;16.374;2022-09-09T07:57:40;3.65;;;1.62;;
37303;SDS011;23188;51.188;16.374;2022-09-09T08:01:42;2.98;;;2.20;;
37303;SDS011;23188;51.188;16.374;2022-09-09T08:05:47;3.95;;;1.65;;
37303;SDS011;23188;51.188;16.374;2022-09-09T08:09:48;1.37;;;1.27;;
37303;SDS011;23188;51.188;16.374;2022-09-09T08:13:50;10.32;;;1.72;;
37303;SDS011;23188;51.188;16.374;2022-09-09T08:17:53;2.87;;;2.12;;
37303;SDS011;23188;51.188;16.374;2022-09-09T08:21:54;6.05;;;2.00;;
37303;SDS011;23188;51.188;16.374;2022-09-09T08:26:02;3.33;;;2.00;;
37303;SDS011;23188;51.188;16.374;2022-09-09T08:30:05;2.15;;;1.47;;
37303;SDS011;23188;51.188;16.374;2022-09-09T08:34:07;1.75;;;1.15;;
37303;SDS011;23188;51.188;16.374;2022-09-09T08:38:10;1.98;;;1.85;;
37303;SDS011;23188;51.188;16.374;2022-09-09T08:42:17;4.40;;;2.33;;
37303;SDS011;23188;51.188;16.374;2022-09-09T08:46:25;6.22;;;2.30;;
37303;SDS011;23188;51.188;16.374;2022-09-09T08:50:40;4.42;;;1.40;;
37303;SDS011;23188;51.188;16.374;2022-09-09T08:54:44;3.37;;;2.00;;
37303;SDS011;23188;51.188;16.374;2022-09-09T08:58:48;3.27;;;1.85;;
37303;SDS011;23188;51.188;16.374;2022-09-09T09:03:38;2.55;;;1.45;;
37303;SDS011;23188;51.188;16.374;2022-09-09T09:07:38;3.58;;;1.45;;
37303;SDS011;23188;51.188;16.374;2022-09-09T09:11:51;1.52;;;1.07;;
37303;SDS011;23188;51.188;16.374;2022-09-09T09:16:09;2.20;;;1.50;;
37303;SDS011;23188;51.188;16.374;2022-09-09T09:20:13;2.27;;;1.32;;
37303;SDS011;23188;51.188;16.374;2022-09-09T09:24:20;1.98;;;1.00;;
37303;SDS011;23188;51.188;16.374;2022-09-09T09:28:27;4.65;;;1.65;;
37303;SDS011;23188;51.188;16.374;2022-09-09T09:32:33;2.47;;;1.15;;
37303;SDS011;23188;51.188;16.374;2022-09-09T09:36:42;2.15;;;1.42;;
37303;SDS011;23188;51.188;16.374;2022-09-09T09:40:56;1.35;;;1.05;;
37303;SDS011;23188;51.188;16.374;2022-09-09T09:45:14;4.33;;;1.22;;
37303;SDS011;23188;51.188;16.374;2022-09-09T09:49:29;3.17;;;0.70;;
37303;SDS011;23188;51.188;16.374;2022-09-09T09:53:30;1.45;;;1.00;;
37303;SDS011;23188;51.188;16.374;2022-09-09T09:57:34;3.20;;;0.90;;
37303;SDS011;23188;51.188;16.374;2022-09-09T10:01:37;1.82;;;1.17;;
37303;SDS011;23188;51.188;16.374;2022-09-09T10:05:46;3.20;;;1.52;;
37303;SDS011;23188;51.188;16.374;2022-09-09T10:09:45;1.22;;;0.80;;
37303;SDS011;23188;51.188;16.374;2022-09-09T10:22:38;3.20;;;0.90;;
37303;SDS011;23188;51.188;16.374;2022-09-09T10:26:50;2.25;;;1.15;;
37303;SDS011;23188;51.188;16.374;2022-09-09T10:31:19;2.77;;;0.75;;
37303;SDS011;23188;51.188;16.374;2022-09-09T10:40:28;1.30;;;1.05;;
37303;SDS011;23188;51.188;16.374;2022-09-09T10:44:50;1.87;;;0.75;;
37303;SDS011;23188;51.188;16.374;2022-09-09T10:57:58;2.35;;;0.88;;
37303;SDS011;23188;51.188;16.374;2022-09-09T11:02:12;3.42;;;1.27;;
37303;SDS011;23188;51.188;16.374;2022-09-09T11:06:20;2.08;;;1.62;;
37303;SDS011;23188;51.188;16.374;2022-09-09T11:14:58;3.05;;;0.60;;
37303;SDS011;23188;51.188;16.374;2022-09-09T11:23:40;4.97;;;1.30;;
37303;SDS011;23188;51.188;16.374;2022-09-09T11:32:45;4.40;;;0.82;;
37303;SDS011;23188;51.188;16.374;2022-09-09T11:41:32;0.75;;;0.37;;
37303;SDS011;23188;51.188;16.374;2022-09-09T11:45:31;1.57;;;0.50;;
37303;SDS011;23188;51.188;16.374;2022-09-09T11:49:42;1.07;;;0.55;;
37303;SDS011;23188;51.188;16.374;2022-09-09T11:58:03;2.58;;;1.30;;
37303;SDS011;23188;51.188;16.374;2022-09-09T12:02:21;0.85;;;0.45;;
37303;SDS011;23188;51.188;16.374;2022-09-09T12:10:34;3.05;;;1.17;;
37303;SDS011;23188;51.188;16.374;2022-09-09T12:19:12;1.12;;;0.40;;
37303;SDS011;23188;51.188;16.374;2022-09-09T12:23:32;2.42;;;0.98;;
37303;SDS011;23188;51.188;16.374;2022-09-09T12:27:45;3.22;;;0.50;;
37303;SDS011;23188;51.188;16.374;2022-09-09T12:32:10;1.27;;;0.60;;
37303;SDS011;23188;51.188;16.374;2022-09-09T12:36:27;0.95;;;0.50;;
37303;SDS011;23188;51.188;16.374;2022-09-09T12:40:31;0.88;;;0.37;;
37303;SDS011;23188;51.188;16.374;2022-09-09T12:44:35;1.17;;;0.82;;
37303;SDS011;23188;51.188;16.374;2022-09-09T12:48:38;0.80;;;0.60;;
37303;SDS011;23188;51.188;16.374;2022-09-09T12:52:44;1.37;;;0.85;;
37303;SDS011;23188;51.188;16.374;2022-09-09T12:56:48;1.00;;;0.50;;
37303;SDS011;23188;51.188;16.374;2022-09-09T13:00:51;2.30;;;0.88;;
37303;SDS011;23188;51.188;16.374;2022-09-09T13:05:05;3.10;;;1.80;;
37303;SDS011;23188;51.188;16.374;2022-09-09T13:09:17;0.82;;;0.45;;
37303;SDS011;23188;51.188;16.374;2022-09-09T13:13:20;1.50;;;1.22;;
37303;SDS011;23188;51.188;16.374;2022-09-09T13:17:34;5.45;;;3.12;;
37303;SDS011;23188;51.188;16.374;2022-09-09T13:21:37;1.40;;;0.93;;
37303;SDS011;23188;51.188;16.374;2022-09-09T13:25:40;3.83;;;2.50;;
37303;SDS011;23188;51.188;16.374;2022-09-09T13:29:41;2.35;;;1.20;;
37303;SDS011;23188;51.188;16.374;2022-09-09T13:33:49;1.12;;;0.80;;
37303;SDS011;23188;51.188;16.374;2022-09-09T13:37:50;1.45;;;0.93;;
37303;SDS011;23188;51.188;16.374;2022-09-09T13:41:52;1.35;;;1.07;;
37303;SDS011;23188;51.188;16.374;2022-09-09T13:45:54;1.47;;;1.00;;
37303;SDS011;23188;51.188;16.374;2022-09-09T13:50:09;0.53;;;0.47;;
37303;SDS011;23188;51.188;16.374;2022-09-09T13:54:23;1.93;;;1.20;;
37303;SDS011;23188;51.188;16.374;2022-09-09T13:58:25;1.10;;;0.70;;
37303;SDS011;23188;51.188;16.374;2022-09-09T14:02:26;3.00;;;1.00;;
37303;SDS011;23188;51.188;16.374;2022-09-09T14:06:28;1.45;;;0.75;;
37303;SDS011;23188;51.188;16.374;2022-09-09T14:10:30;3.60;;;0.90;;
37303;SDS011;23188;51.188;16.374;2022-09-09T14:14:31;0.93;;;0.57;;
37303;SDS011;23188;51.188;16.374;2022-09-09T14:18:33;3.90;;;2.10;;
37303;SDS011;23188;51.188;16.374;2022-09-09T14:22:34;4.22;;;3.50;;
37303;SDS011;23188;51.188;16.374;2022-09-09T14:26:37;3.80;;;1.50;;
37303;SDS011;23188;51.188;16.374;2022-09-09T14:30:39;0.75;;;0.55;;
37303;SDS011;23188;51.188;16.374;2022-09-09T14:34:41;2.20;;;0.90;;
37303;SDS011;23188;51.188;16.374;2022-09-09T14:38:43;1.80;;;1.35;;
37303;SDS011;23188;51.188;16.374;2022-09-09T14:42:45;0.98;;;0.72;;
37303;SDS011;23188;51.188;16.374;2022-09-09T14:46:46;1.42;;;0.88;;
37303;SDS011;23188;51.188;16.374;2022-09-09T14:50:47;4.10;;;0.72;;
37303;SDS011;23188;51.188;16.374;2022-09-09T14:54:49;1.10;;;0.90;;
37303;SDS011;23188;51.188;16.374;2022-09-09T14:58:52;2.85;;;0.50;;
37303;SDS011;23188;51.188;16.374;2022-09-09T15:02:58;1.55;;;0.70;;
37303;SDS011;23188;51.188;16.374;2022-09-09T15:06:59;1.40;;;0.98;;
37303;SDS011;23188;51.188;16.374;2022-09-09T15:11:04;1.57;;;0.72;;
37303;SDS011;23188;51.188;16.374;2022-09-09T15:15:08;5.05;;;0.78;;
37303;SDS011;23188;51.188;16.374;2022-09-09T15:19:10;1.42;;;1.05;;
37303;SDS011;23188;51.188;16.374;2022-09-09T15:23:12;2.25;;;0.80;;
37303;SDS011;23188;51.188;16.374;2022-09-09T15:27:14;2.10;;;1.10;;
37303;SDS011;23188;51.188;16.374;2022-09-09T15:35:24;3.05;;;1.20;;
37303;SDS011;23188;51.188;16.374;2022-09-09T15:39:25;3.12;;;1.25;;
37303;SDS011;23188;51.188;16.374;2022-09-09T15:43:26;2.10;;;1.57;;
37303;SDS011;23188;51.188;16.374;2022-09-09T15:47:27;1.75;;;1.20;;
37303;SDS011;23188;51.188;16.374;2022-09-09T15:51:29;3.70;;;1.30;;
37303;SDS011;23188;51.188;16.374;2022-09-09T15:55:30;2.58;;;1.20;;
37303;SDS011;23188;51.188;16.374;2022-09-09T15:59:31;2.42;;;0.60;;
37303;SDS011;23188;51.188;16.374;2022-09-09T16:03:34;2.77;;;1.37;;
37303;SDS011;23188;51.188;16.374;2022-09-09T16:07:39;5.43;;;0.97;;
37303;SDS011;23188;51.188;16.374;2022-09-09T16:11:42;2.10;;;0.82;;
37303;SDS011;23188;51.188;16.374;2022-09-09T16:15:44;12.28;;;9.20;;
37303;SDS011;23188;51.188;16.374;2022-09-09T16:19:46;2.98;;;1.92;;
37303;SDS011;23188;51.188;16.374;2022-09-09T16:23:48;3.30;;;2.00;;
37303;SDS011;23188;51.188;16.374;2022-09-09T16:27:50;5.87;;;1.90;;
37303;SDS011;23188;51.188;16.374;2022-09-09T16:31:54;3.12;;;1.57;;
37303;SDS011;23188;51.188;16.374;2022-09-09T16:35:55;10.10;;;2.08;;
37303;SDS011;23188;51.188;16.374;2022-09-09T16:39:57;1.70;;;1.07;;
37303;SDS011;23188;51.188;16.374;2022-09-09T16:44:00;2.70;;;1.15;;
37303;SDS011;23188;51.188;16.374;2022-09-09T16:48:04;3.42;;;1.22;;
37303;SDS011;23188;51.188;16.374;2022-09-09T16:52:05;12.75;;;1.50;;
37303;SDS011;23188;51.188;16.374;2022-09-09T16:56:07;5.55;;;1.75;;
37303;SDS011;23188;51.188;16.374;2022-09-09T17:00:11;3.15;;;2.50;;
37303;SDS011;23188;51.188;16.374;2022-09-09T17:04:20;5.78;;;1.90;;
37303;SDS011;23188;51.188;16.374;2022-09-09T17:08:24;1.80;;;1.07;;
37303;SDS011;23188;51.188;16.374;2022-09-09T17:12:26;4.20;;;1.72;;
37303;SDS011;23188;51.188;16.374;2022-09-09T17:16:28;3.98;;;2.10;;
37303;SDS011;23188;51.188;16.374;2022-09-09T17:20:34;6.80;;;1.50;;
37303;SDS011;23188;51.188;16.374;2022-09-09T17:24:39;2.95;;;1.65;;
37303;SDS011;23188;51.188;16.374;2022-09-09T17:28:42;2.08;;;1.52;;
37303;SDS011;23188;51.188;16.374;2022-09-09T17:32:45;2.98;;;1.50;;
37303;SDS011;23188;51.188;16.374;2022-09-09T17:36:47;3.10;;;1.55;;
37303;SDS011;23188;51.188;16.374;2022-09-09T17:40:48;3.20;;;2.00;;
37303;SDS011;23188;51.188;16.374;2022-09-09T17:44:51;3.72;;;2.52;;
37303;SDS011;23188;51.188;16.374;2022-09-09T17:48:55;5.95;;;2.52;;
37303;SDS011;23188;51.188;16.374;2022-09-09T17:52:58;8.70;;;4.17;;
37303;SDS011;23188;51.188;16.374;2022-09-09T17:57:00;25.70;;;15.58;;
37303;SDS011;23188;51.188;16.374;2022-09-09T18:01:05;12.65;;;4.85;;
37303;SDS011;23188;51.188;16.374;2022-09-09T18:05:10;15.35;;;7.92;;
37303;SDS011;23188;51.188;16.374;2022-09-09T18:09:15;15.98;;;9.15;;
37303;SDS011;23188;51.188;16.374;2022-09-09T18:13:22;15.78;;;11.85;;
37303;SDS011;23188;51.188;16.374;2022-09-09T18:17:24;27.07;;;12.68;;
37303;SDS011;23188;51.188;16.374;2022-09-09T18:21:28;14.05;;;9.48;;
37303;SDS011;23188;51.188;16.374;2022-09-09T18:25:39;8.53;;;6.17;;
37303;SDS011;23188;51.188;16.374;2022-09-09T18:29:40;9.00;;;6.60;;
37303;SDS011;23188;51.188;16.374;2022-09-09T18:33:43;11.22;;;4.80;;
37303;SDS011;23188;51.188;16.374;2022-09-09T18:37:46;6.25;;;4.45;;
37303;SDS011;23188;51.188;16.374;2022-09-09T18:41:49;5.15;;;2.58;;
37303;SDS011;23188;51.188;16.374;2022-09-09T18:45:54;3.75;;;3.33;;
37303;SDS011;23188;51.188;16.374;2022-09-09T18:50:00;7.90;;;3.87;;
37303;SDS011;23188;51.188;16.374;2022-09-09T18:54:03;5.10;;;3.25;;
37303;SDS011;23188;51.188;16.374;2022-09-09T18:58:10;5.53;;;3.60;;
37303;SDS011;23188;51.188;16.374;2022-09-09T19:02:13;5.95;;;4.28;;
37303;SDS011;23188;51.188;16.374;2022-09-09T19:06:15;7.83;;;4.10;;
37303;SDS011;23188;51.188;16.374;2022-09-09T19:10:23;4.97;;;4.17;;
37303;SDS011;23188;51.188;16.374;2022-09-09T19:14:25;6.78;;;4.50;;
37303;SDS011;23188;51.188;16.374;2022-09-09T19:18:27;12.35;;;7.28;;
37303;SDS011;23188;51.188;16.374;2022-09-09T19:22:29;8.45;;;4.87;;
37303;SDS011;23188;51.188;16.374;2022-09-09T19:26:31;9.78;;;3.92;;
37303;SDS011;23188;51.188;16.374;2022-09-09T19:30:42;7.67;;;4.28;;
37303;SDS011;23188;51.188;16.374;2022-09-09T19:34:46;9.03;;;4.30;;
37303;SDS011;23188;51.188;16.374;2022-09-09T19:38:47;7.42;;;3.62;;
37303;SDS011;23188;51.188;16.374;2022-09-09T19:42:49;4.92;;;3.67;;
37303;SDS011;23188;51.188;16.374;2022-09-09T19:46:52;13.05;;;4.80;;
37303;SDS011;23188;51.188;16.374;2022-09-09T19:50:55;8.75;;;4.92;;
37303;SDS011;23188;51.188;16.374;2022-09-09T19:54:58;12.75;;;4.75;;
37303;SDS011;23188;51.188;16.374;2022-09-09T19:59:01;9.83;;;5.40;;
37303;SDS011;23188;51.188;16.374;2022-09-09T20:03:03;8.83;;;5.72;;
37303;SDS011;23188;51.188;16.374;2022-09-09T20:07:04;6.95;;;5.70;;
37303;SDS011;23188;51.188;16.374;2022-09-09T20:11:06;5.62;;;4.50;;
37303;SDS011;23188;51.188;16.374;2022-09-09T20:15:09;111.30;;;53.95;;
37303;SDS011;23188;51.188;16.374;2022-09-09T20:19:10;256.77;;;130.75;;
37303;SDS011;23188;51.188;16.374;2022-09-09T20:23:13;146.75;;;69.55;;
37303;SDS011;23188;51.188;16.374;2022-09-09T20:27:16;115.15;;;58.85;;
37303;SDS011;23188;51.188;16.374;2022-09-09T20:31:19;68.78;;;32.38;;
37303;SDS011;23188;51.188;16.374;2022-09-09T20:35:24;24.52;;;12.90;;
37303;SDS011;23188;51.188;16.374;2022-09-09T20:39:25;10.28;;;7.22;;
37303;SDS011;23188;51.188;16.374;2022-09-09T20:43:27;11.53;;;4.30;;
37303;SDS011;23188;51.188;16.374;2022-09-09T20:47:28;4.33;;;3.30;;
37303;SDS011;23188;51.188;16.374;2022-09-09T20:51:30;8.48;;;4.17;;
37303;SDS011;23188;51.188;16.374;2022-09-09T20:55:33;5.42;;;2.87;;
37303;SDS011;23188;51.188;16.374;2022-09-09T20:59:35;7.92;;;3.10;;
37303;SDS011;23188;51.188;16.374;2022-09-09T21:03:36;7.12;;;2.45;;
37303;SDS011;23188;51.188;16.374;2022-09-09T21:07:38;3.30;;;2.27;;
37303;SDS011;23188;51.188;16.374;2022-09-09T21:11:39;2.65;;;1.67;;
37303;SDS011;23188;51.188;16.374;2022-09-09T21:15:43;3.95;;;1.70;;
37303;SDS011;23188;51.188;16.374;2022-09-09T21:19:45;4.50;;;1.98;;
37303;SDS011;23188;51.188;16.374;2022-09-09T21:23:47;2.30;;;2.08;;
37303;SDS011;23188;51.188;16.374;2022-09-09T21:27:49;1.85;;;1.75;;
37303;SDS011;23188;51.188;16.374;2022-09-09T21:31:51;8.33;;;2.67;;
37303;SDS011;23188;51.188;16.374;2022-09-09T21:35:55;8.73;;;2.98;;
37303;SDS011;23188;51.188;16.374;2022-09-09T21:40:06;9.80;;;2.45;;
37303;SDS011;23188;51.188;16.374;2022-09-09T21:44:09;5.72;;;2.92;;
37303;SDS011;23188;51.188;16.374;2022-09-09T21:48:14;4.47;;;2.67;;
37303;SDS011;23188;51.188;16.374;2022-09-09T21:52:19;13.30;;;3.08;;
37303;SDS011;23188;51.188;16.374;2022-09-09T21:56:20;4.53;;;3.60;;
37303;SDS011;23188;51.188;16.374;2022-09-09T22:00:23;8.70;;;3.50;;
37303;SDS011;23188;51.188;16.374;2022-09-09T22:04:24;7.15;;;3.42;;
37303;SDS011;23188;51.188;16.374;2022-09-09T22:08:26;3.98;;;2.90;;
37303;SDS011;23188;51.188;16.374;2022-09-09T22:12:29;6.47;;;2.55;;
37303;SDS011;23188;51.188;16.374;2022-09-09T22:16:30;2.62;;;2.42;;
37303;SDS011;23188;51.188;16.374;2022-09-09T22:20:32;6.20;;;2.05;;
37303;SDS011;23188;51.188;16.374;2022-09-09T22:24:39;4.53;;;1.57;;
37303;SDS011;23188;51.188;16.374;2022-09-09T22:28:40;3.95;;;2.10;;
37303;SDS011;23188;51.188;16.374;2022-09-09T22:32:41;2.47;;;1.75;;
37303;SDS011;23188;51.188;16.374;2022-09-09T22:36:43;2.37;;;2.17;;
37303;SDS011;23188;51.188;16.374;2022-09-09T22:40:45;4.85;;;1.87;;
37303;SDS011;23188;51.188;16.374;2022-09-09T22:44:47;4.08;;;1.85;;
37303;SDS011;23188;51.188;16.374;2022-09-09T22:48:48;3.50;;;1.77;;
37303;SDS011;23188;51.188;16.374;2022-09-09T22:52:50;2.55;;;1.75;;
37303;SDS011;23188;51.188;16.374;2022-09-09T22:56:52;1.67;;;1.57;;
37303;SDS011;23188;51.188;16.374;2022-09-09T23:00:54;4.17;;;1.98;;
37303;SDS011;23188;51.188;16.374;2022-09-09T23:04:58;2.83;;;2.30;;
37303;SDS011;23188;51.188;16.374;2022-09-09T23:09:01;4.42;;;1.60;;
37303;SDS011;23188;51.188;16.374;2022-09-09T23:13:03;4.75;;;1.98;;
37303;SDS011;23188;51.188;16.374;2022-09-09T23:17:06;5.42;;;2.00;;
37303;SDS011;23188;51.188;16.374;2022-09-09T23:21:08;6.87;;;2.17;;
37303;SDS011;23188;51.188;16.374;2022-09-09T23:25:12;4.35;;;2.05;;
37303;SDS011;23188;51.188;16.374;2022-09-09T23:29:13;5.45;;;2.08;;
37303;SDS011;23188;51.188;16.374;2022-09-09T23:33:15;4.85;;;2.02;;
37303;SDS011;23188;51.188;16.374;2022-09-09T23:37:16;2.92;;;2.25;;
37303;SDS011;23188;51.188;16.374;2022-09-09T23:41:18;4.62;;;2.17;;
37303;SDS011;23188;51.188;16.374;2022-09-09T23:45:20;4.75;;;2.10;;
37303;SDS011;23188;51.188;16.374;2022-09-09T23:49:22;2.92;;;1.62;;
37303;SDS011;23188;51.188;16.374;2022-09-09T23:53:23;2.40;;;1.32;;
37303;SDS011;23188;51.188;16.374;2022-09-09T23:57:26;4.50;;;2.52;;
